createdAt,value
2018-09-13T00:00:50.732Z,3.83
2018-09-13T00:02:53.917Z,3.23
2018-09-13T00:04:57.386Z,3.73
2018-09-13T00:07:00.590Z,3.43
2018-09-13T00:09:05.102Z,3.60
2018-09-13T00:11:08.484Z,3.30
2018-09-13T00:13:11.660Z,4.43
2018-09-13T00:15:14.859Z,3.57
2018-09-13T00:17:18.076Z,3.30
2018-09-13T00:19:21.931Z,3.90
2018-09-13T00:21:25.108Z,3.67
2018-09-13T00:23:28.588Z,3.80
2018-09-13T00:25:32.005Z,3.63
2018-09-13T00:27:35.188Z,4.23
2018-09-13T00:29:38.644Z,4.00
2018-09-13T00:31:41.899Z,3.80
2018-09-13T00:33:45.268Z,4.13
2018-09-13T00:35:48.455Z,3.40
2018-09-13T00:37:51.636Z,3.53
2018-09-13T00:39:55.145Z,3.47
2018-09-13T00:41:58.541Z,3.47
2018-09-13T00:44:01.754Z,4.23
2018-09-13T00:46:05.469Z,3.83
2018-09-13T00:48:09.480Z,4.03
2018-09-13T00:50:14.174Z,3.80
2018-09-13T00:52:17.337Z,2.83
2018-09-13T00:54:20.860Z,3.10
2018-09-13T00:56:24.026Z,3.40
2018-09-13T00:58:27.220Z,3.40
2018-09-13T01:00:30.660Z,3.13
2018-09-13T01:02:33.828Z,3.40
2018-09-13T01:04:37.020Z,3.57
2018-09-13T01:06:40.524Z,3.03
2018-09-13T01:08:43.841Z,4.27
2018-09-13T01:10:47.262Z,2.87
2018-09-13T01:12:50.704Z,3.80
2018-09-13T01:14:54.544Z,5.07
2018-09-13T01:16:57.734Z,3.47
2018-09-13T01:19:01.616Z,3.90
2018-09-13T01:21:04.843Z,3.50
2018-09-13T01:23:08.008Z,3.70
2018-09-13T01:25:11.801Z,3.23
2018-09-13T01:27:14.976Z,3.70
2018-09-13T01:29:18.160Z,7.17
2018-09-13T01:31:21.365Z,6.13
2018-09-13T01:33:24.548Z,4.47
2018-09-13T01:35:27.721Z,3.20
2018-09-13T01:37:31.240Z,3.50
2018-09-13T01:39:34.420Z,4.03
2018-09-13T01:41:38.228Z,4.20
2018-09-13T01:43:41.653Z,5.00
2018-09-13T01:45:44.845Z,5.80
2018-09-13T01:47:48.046Z,4.27
2018-09-13T01:49:51.228Z,3.70
2018-09-13T01:51:54.407Z,3.70
2018-09-13T01:53:57.587Z,5.63
2018-09-13T01:56:00.781Z,5.23
2018-09-13T01:58:05.315Z,4.70
2018-09-13T02:00:08.825Z,3.77
2018-09-13T02:02:12.337Z,4.60
2018-09-13T02:04:15.512Z,3.70
2018-09-13T02:06:18.768Z,4.87
2018-09-13T02:08:21.970Z,4.67
2018-09-13T02:30:02.369Z,3.13
2018-09-13T02:32:05.561Z,2.80
2018-09-13T02:34:08.731Z,3.07
2018-09-13T02:36:11.935Z,3.77
2018-09-13T02:38:15.104Z,2.90
2018-09-13T02:40:18.286Z,3.93
2018-09-13T02:42:21.508Z,3.27
2018-09-13T02:44:24.708Z,3.70
2018-09-13T02:46:27.875Z,3.40
2018-09-13T02:48:31.369Z,5.70
2018-09-13T02:50:34.549Z,4.90
2018-09-13T02:52:37.794Z,5.00
2018-09-13T02:54:40.995Z,6.90
2018-09-13T02:56:44.297Z,3.50
2018-09-13T02:58:47.559Z,3.57
2018-09-13T03:00:51.500Z,4.40
2018-09-13T03:02:54.946Z,4.90
2018-09-13T03:04:58.236Z,10.40
2018-09-13T03:07:01.426Z,6.00
2018-09-13T03:09:07.760Z,5.83
2018-09-13T03:11:10.947Z,2.67
2018-09-13T03:13:14.152Z,4.00
2018-09-13T03:15:17.324Z,4.00
2018-09-13T03:17:20.548Z,4.13
2018-09-13T03:19:23.736Z,4.30
2018-09-13T03:21:27.943Z,4.90
2018-09-13T03:23:37.709Z,4.50
2018-09-13T03:25:40.929Z,4.07
2018-09-13T03:27:44.431Z,5.30
2018-09-13T03:29:47.656Z,4.53
2018-09-13T03:31:50.848Z,6.00
2018-09-13T03:33:54.056Z,3.20
2018-09-13T03:35:57.564Z,4.47
2018-09-13T03:38:00.796Z,4.00
2018-09-13T03:40:04.373Z,4.67
2018-09-13T03:42:07.797Z,5.53
2018-09-13T03:44:11.056Z,3.90
2018-09-13T03:46:14.227Z,2.90
2018-09-13T03:48:17.416Z,5.30
2018-09-13T03:50:20.685Z,4.60
2018-09-13T03:52:23.872Z,3.90
2018-09-13T03:54:27.084Z,2.70
2018-09-13T03:56:30.455Z,2.70
2018-09-13T03:58:33.641Z,4.17
2018-09-13T04:00:36.852Z,4.10
2018-09-13T04:02:40.016Z,3.03
2018-09-13T04:04:43.544Z,3.70
2018-09-13T04:06:47.040Z,2.83
2018-09-13T04:08:50.231Z,2.70
2018-09-13T04:10:53.458Z,2.77
2018-09-13T04:12:57.024Z,2.90
2018-09-13T04:15:00.223Z,3.67
2018-09-13T04:17:03.720Z,4.27
2018-09-13T04:19:06.909Z,3.77
2018-09-13T04:21:10.102Z,3.27
2018-09-13T04:23:13.875Z,2.80
2018-09-13T04:25:17.112Z,3.60
2018-09-13T04:27:20.288Z,3.50
2018-09-13T04:29:23.744Z,3.70
2018-09-13T04:31:27.008Z,3.70
2018-09-13T04:33:30.365Z,3.97
2018-09-13T04:35:33.677Z,3.83
2018-09-13T04:37:36.995Z,3.30
2018-09-13T04:39:40.172Z,3.33
2018-09-13T04:41:43.383Z,3.60
2018-09-13T04:43:46.795Z,3.50
2018-09-13T04:45:50.128Z,4.30
2018-09-13T04:47:53.316Z,4.20
2018-09-13T04:49:56.524Z,3.70
2018-09-13T04:51:59.696Z,3.73
2018-09-13T04:54:02.909Z,3.33
2018-09-13T04:56:06.528Z,3.73
2018-09-13T04:58:09.908Z,2.90
2018-09-13T05:00:13.489Z,3.50
2018-09-13T05:02:16.865Z,3.87
2018-09-13T05:04:20.059Z,4.87
2018-09-13T05:06:23.222Z,4.50
2018-09-13T05:08:26.396Z,5.00
2018-09-13T05:10:29.957Z,3.63
2018-09-13T05:12:33.224Z,3.70
2018-09-13T05:14:36.444Z,4.30
2018-09-13T05:16:39.952Z,28.63
2018-09-13T05:18:43.135Z,22.03
2018-09-13T05:20:46.319Z,11.53
2018-09-13T05:22:49.704Z,11.23
2018-09-13T05:24:52.889Z,6.73
2018-09-13T05:26:56.092Z,5.03
2018-09-13T05:28:59.571Z,4.10
2018-09-13T05:31:02.728Z,4.07
2018-09-13T05:33:06.476Z,4.10
2018-09-13T05:35:10.068Z,6.30
2018-09-13T05:37:13.241Z,9.97
2018-09-13T05:39:16.434Z,10.40
2018-09-13T05:41:19.816Z,5.37
2018-09-13T05:43:23.344Z,4.77
2018-09-13T05:45:26.546Z,4.30
2018-09-13T05:47:29.810Z,4.60
2018-09-13T05:49:32.992Z,4.47
2018-09-13T05:51:36.201Z,8.30
2018-09-13T05:53:40.068Z,5.50
2018-09-13T05:55:43.330Z,5.43
2018-09-13T05:57:46.517Z,6.50
2018-09-13T05:59:49.744Z,6.03
2018-09-13T06:01:52.932Z,6.20
2018-09-13T06:03:56.136Z,5.80
2018-09-13T06:05:59.328Z,5.23
2018-09-13T06:08:03.125Z,5.37
2018-09-13T06:10:06.788Z,4.90
2018-09-13T06:12:10.004Z,6.97
2018-09-13T06:14:13.192Z,15.43
2018-09-13T06:16:16.440Z,8.27
2018-09-13T06:18:19.656Z,7.27
2018-09-13T06:20:22.833Z,7.07
2018-09-13T06:22:26.183Z,6.13
2018-09-13T06:24:29.369Z,5.13
2018-09-13T06:26:33.219Z,5.07
2018-09-13T06:28:36.426Z,5.50
2018-09-13T06:30:39.620Z,5.17
2018-09-13T06:32:42.809Z,5.27
2018-09-13T06:34:45.984Z,5.50
2018-09-13T06:36:49.200Z,5.50
2018-09-13T06:38:52.392Z,5.70
2018-09-13T06:40:55.587Z,6.10
2018-09-13T06:42:59.264Z,5.40
2018-09-13T06:45:02.453Z,5.23
2018-09-13T06:47:06.128Z,5.47
2018-09-13T06:49:09.324Z,5.40
2018-09-13T06:51:12.588Z,5.53
2018-09-13T06:53:16.097Z,6.70
2018-09-13T06:55:19.566Z,6.20
2018-09-13T06:57:22.724Z,7.03
2018-09-13T06:59:25.953Z,6.87
2018-09-13T07:01:29.204Z,6.10
2018-09-13T07:03:32.467Z,5.97
2018-09-13T07:05:35.939Z,6.33
2018-09-13T07:07:39.112Z,6.70
2018-09-13T07:09:42.329Z,6.10
2018-09-13T07:11:45.841Z,6.90
2018-09-13T07:13:49.376Z,6.80
2018-09-13T07:15:53.060Z,6.60
2018-09-13T07:17:56.269Z,6.40
2018-09-13T07:19:59.456Z,5.87
2018-09-13T07:22:02.713Z,5.63
2018-09-13T07:24:05.898Z,6.00
2018-09-13T07:26:09.072Z,6.20
2018-09-13T07:28:12.443Z,7.10
2018-09-13T07:30:15.640Z,7.03
2018-09-13T07:32:18.821Z,5.30
2018-09-13T07:34:22.042Z,4.80
2018-09-13T07:36:25.212Z,4.77
2018-09-13T07:38:28.557Z,4.70
2018-09-13T07:40:31.847Z,4.50
2018-09-13T07:42:35.090Z,4.37
2018-09-13T07:44:38.452Z,3.97
2018-09-13T07:46:41.972Z,3.67
2018-09-13T07:48:45.179Z,3.43
2018-09-13T07:50:48.420Z,7.03
2018-09-13T07:52:51.605Z,3.60
2018-09-13T07:54:54.856Z,2.70
2018-09-13T07:56:58.036Z,3.10
2018-09-13T07:59:01.500Z,3.50
2018-09-13T08:01:04.911Z,4.90
2018-09-13T08:03:08.087Z,10.20
2018-09-13T08:05:11.676Z,5.93
2018-09-13T08:07:15.372Z,3.50
2018-09-13T08:09:18.542Z,2.57
2018-09-13T08:11:21.912Z,2.63
2018-09-13T08:13:25.460Z,2.63
2018-09-13T08:15:28.632Z,2.37
2018-09-13T08:17:31.886Z,2.40
2018-09-13T08:19:35.438Z,2.40
2018-09-13T08:21:38.757Z,2.23
2018-09-13T08:23:42.136Z,2.67
2018-09-13T08:25:45.661Z,2.40
2018-09-13T08:27:48.860Z,2.63
2018-09-13T08:29:52.528Z,2.27
2018-09-13T08:31:55.680Z,2.73
2018-09-13T08:33:58.853Z,2.43
2018-09-13T08:36:02.047Z,2.27
2018-09-13T08:38:05.580Z,2.10
2018-09-13T08:40:09.153Z,2.27
2018-09-13T08:42:12.516Z,2.40
2018-09-13T08:44:15.688Z,2.10
2018-09-13T08:46:20.813Z,2.40
2018-09-13T08:48:24.002Z,1.57
2018-09-13T08:50:27.184Z,2.30
2018-09-13T08:52:30.360Z,2.13
2018-09-13T08:54:33.786Z,2.87
2018-09-13T08:56:37.520Z,3.97
2018-09-13T08:58:41.024Z,2.00
2018-09-13T09:00:44.433Z,3.60
2018-09-13T09:02:47.739Z,2.63
2018-09-13T09:04:50.896Z,1.97
2018-09-13T09:06:54.076Z,2.23
2018-09-13T09:08:57.266Z,3.40
2018-09-13T09:11:00.700Z,2.80
2018-09-13T09:13:04.216Z,2.00
2018-09-13T09:15:07.408Z,2.20
2018-09-13T09:17:10.648Z,4.00
2018-09-13T09:19:14.096Z,2.50
2018-09-13T09:21:17.518Z,2.20
2018-09-13T09:23:20.688Z,1.70
2018-09-13T09:25:23.897Z,2.10
2018-09-13T09:27:27.911Z,1.93
2018-09-13T09:29:31.100Z,1.90
2018-09-13T09:31:34.488Z,1.97
2018-09-13T09:33:37.648Z,2.20
2018-09-13T09:35:41.120Z,2.03
2018-09-13T09:37:44.315Z,1.57
2018-09-13T09:39:47.643Z,2.07
2018-09-13T09:41:50.971Z,2.17
2018-09-13T09:43:54.160Z,2.20
2018-09-13T09:45:57.403Z,1.70
2018-09-13T09:48:00.640Z,1.93
2018-09-13T09:50:04.503Z,2.30
2018-09-13T09:52:08.415Z,2.03
2018-09-13T09:54:11.861Z,1.83
2018-09-13T09:56:15.391Z,1.90
2018-09-13T09:58:18.778Z,1.73
2018-09-13T10:00:27.749Z,1.57
2018-09-13T10:02:31.308Z,1.80
2018-09-13T10:04:34.494Z,1.60
2018-09-13T10:06:38.188Z,1.80
2018-09-13T10:08:41.733Z,1.47
2018-09-13T10:10:44.901Z,1.87
2018-09-13T10:12:48.073Z,2.40
2018-09-13T10:14:56.728Z,2.23
2018-09-13T10:17:05.824Z,2.50
2018-09-13T10:19:14.739Z,2.30
2018-09-13T10:21:23.497Z,1.80
2018-09-13T10:23:32.226Z,2.90
2018-09-13T10:25:41.064Z,2.23
2018-09-13T10:27:49.754Z,2.23
2018-09-13T10:29:58.392Z,2.30
2018-09-13T10:32:06.840Z,1.90
2018-09-13T10:34:16.323Z,1.43
2018-09-13T10:36:24.854Z,1.90
2018-09-13T10:38:33.508Z,2.00
2018-09-13T10:40:42.491Z,1.73
2018-09-13T10:42:51.374Z,1.80
2018-09-13T10:44:59.920Z,2.10
2018-09-13T10:47:09.140Z,4.00
2018-09-13T10:49:17.824Z,2.33
2018-09-13T10:51:26.316Z,2.20
2018-09-13T10:53:33.770Z,1.90
2018-09-13T10:55:37.010Z,2.23
2018-09-13T10:57:41.918Z,2.37
2018-09-13T10:59:46.510Z,1.80
2018-09-13T11:01:49.656Z,1.80
2018-09-13T11:03:53.447Z,2.47
2018-09-13T11:05:57.166Z,1.77
2018-09-13T11:08:00.788Z,2.17
2018-09-13T11:10:04.082Z,2.20
2018-09-13T11:12:08.488Z,2.60
2018-09-13T11:14:17.850Z,2.70
2018-09-13T11:16:21.569Z,2.00
2018-09-13T11:18:24.778Z,1.90
2018-09-13T11:20:27.936Z,2.30
2018-09-13T11:22:31.120Z,2.70
2018-09-13T11:24:34.373Z,2.10
2018-09-13T11:26:37.850Z,2.07
2018-09-13T11:28:41.704Z,1.80
2018-09-13T11:30:45.031Z,2.20
2018-09-13T11:32:48.318Z,1.90
2018-09-13T11:34:51.496Z,1.80
2018-09-13T11:36:54.695Z,2.57
2018-09-13T11:38:57.871Z,1.83
2018-09-13T11:41:01.459Z,2.17
2018-09-13T11:43:04.611Z,2.10
2018-09-13T11:45:08.447Z,1.53
2018-09-13T11:47:11.620Z,1.67
2018-09-13T11:49:14.812Z,2.30
2018-09-13T11:51:17.987Z,2.10
2018-09-13T11:53:21.137Z,2.10
2018-09-13T11:55:24.400Z,1.90
2018-09-13T11:57:27.828Z,1.90
2018-09-13T11:59:31.077Z,1.57
2018-09-13T12:01:34.233Z,1.43
2018-09-13T12:03:37.701Z,2.53
2018-09-13T12:05:40.892Z,2.13
2018-09-13T12:07:44.067Z,1.93
2018-09-13T12:09:47.312Z,1.90
2018-09-13T12:11:50.866Z,1.63
2018-09-13T12:13:54.042Z,1.60
2018-09-13T12:15:57.820Z,2.10
2018-09-13T12:18:01.294Z,1.73
2018-09-13T12:20:04.629Z,2.13
2018-09-13T12:22:07.840Z,1.90
2018-09-13T12:24:11.066Z,2.13
2018-09-13T12:26:14.240Z,2.20
2018-09-13T12:28:17.450Z,2.03
2018-09-13T12:30:20.652Z,2.00
2018-09-13T12:32:24.780Z,1.77
2018-09-13T12:34:28.041Z,1.33
2018-09-13T12:36:31.752Z,1.70
2018-09-13T12:38:35.269Z,1.73
2018-09-13T12:40:38.980Z,1.60
2018-09-13T12:42:42.156Z,1.90
2018-09-13T12:44:46.222Z,1.45
2018-09-13T12:46:49.412Z,1.93
2018-09-13T12:48:52.741Z,1.80
2018-09-13T12:50:55.924Z,1.73
2018-09-13T12:52:59.083Z,2.10
2018-09-13T12:55:02.250Z,2.80
2018-09-13T12:57:05.972Z,2.60
2018-09-13T12:59:09.296Z,1.70
2018-09-13T13:01:12.816Z,2.10
2018-09-13T13:03:16.248Z,2.20
2018-09-13T13:05:19.452Z,1.53
2018-09-13T13:07:22.618Z,1.40
2018-09-13T13:09:25.854Z,2.00
2018-09-13T13:11:29.020Z,2.60
2018-09-13T13:13:32.587Z,1.80
2018-09-13T13:15:36.283Z,4.27
2018-09-13T13:17:39.495Z,2.13
2018-09-13T13:19:43.349Z,2.07
2018-09-13T13:21:47.020Z,1.87
2018-09-13T13:23:50.184Z,1.60
2018-09-13T13:25:53.533Z,1.67
2018-09-13T13:27:57.124Z,2.00
2018-09-13T13:30:00.301Z,1.50
2018-09-13T13:32:04.344Z,1.80
2018-09-13T13:34:07.876Z,1.77
2018-09-13T13:36:11.040Z,2.10
2018-09-13T13:38:14.876Z,2.33
2018-09-13T13:40:18.296Z,1.90
2018-09-13T13:42:21.477Z,1.70
2018-09-13T13:44:24.837Z,1.93
2018-09-13T13:46:28.121Z,1.50
2018-09-13T13:48:31.352Z,1.90
2018-09-13T13:50:35.230Z,1.60
2018-09-13T13:52:38.404Z,1.60
2018-09-13T13:54:41.592Z,3.10
2018-09-13T13:56:44.824Z,2.10
2018-09-13T13:58:48.329Z,1.73
2018-09-13T14:00:51.513Z,1.83
2018-09-13T14:02:54.973Z,1.90
2018-09-13T14:04:58.140Z,1.30
2018-09-13T14:07:01.323Z,1.87
2018-09-13T14:09:08.903Z,1.20
2018-09-13T14:11:12.219Z,1.37
2018-09-13T14:13:15.386Z,1.77
2018-09-13T14:15:18.686Z,1.47
2018-09-13T14:17:21.852Z,1.30
2018-09-13T14:19:25.032Z,1.30
2018-09-13T14:21:28.239Z,1.87
2018-09-13T14:23:31.520Z,1.70
2018-09-13T14:25:34.812Z,1.97
2018-09-13T14:27:38.359Z,1.50
2018-09-13T14:29:41.566Z,1.57
2018-09-13T14:31:44.985Z,2.10
2018-09-13T14:33:48.196Z,1.50
2018-09-13T14:35:51.705Z,1.70
2018-09-13T14:37:54.884Z,1.43
2018-09-13T14:39:58.383Z,1.70
2018-09-13T14:42:01.684Z,1.47
2018-09-13T14:44:05.208Z,2.07
2018-09-13T14:46:08.452Z,2.07
2018-09-13T14:48:11.656Z,1.63
2018-09-13T14:50:14.860Z,1.60
2018-09-13T14:52:18.437Z,1.57
2018-09-13T14:54:21.988Z,1.40
2018-09-13T14:56:25.516Z,1.40
2018-09-13T14:58:28.708Z,1.43
2018-09-13T15:00:31.881Z,1.47
2018-09-13T15:02:35.384Z,1.47
2018-09-13T15:04:38.581Z,1.53
2018-09-13T15:06:41.775Z,1.90
2018-09-13T15:08:44.972Z,3.13
2018-09-13T15:10:48.168Z,4.33
2018-09-13T15:12:51.662Z,2.13
2018-09-13T15:14:55.130Z,1.57
2018-09-13T15:16:58.305Z,2.70
2018-09-13T15:19:01.496Z,3.33
2018-09-13T15:21:05.333Z,1.77
2018-09-13T15:23:08.710Z,1.60
2018-09-13T15:25:11.885Z,1.47
2018-09-13T15:27:15.071Z,1.40
2018-09-13T15:29:18.325Z,1.50
2018-09-13T15:31:21.737Z,1.90
2018-09-13T15:33:25.385Z,1.43
2018-09-13T15:35:28.837Z,2.27
2018-09-13T15:37:31.992Z,1.97
2018-09-13T15:39:35.948Z,3.00
2018-09-13T15:41:39.176Z,2.20
2018-09-13T15:43:42.548Z,1.57
2018-09-13T15:45:46.542Z,1.10
2018-09-13T15:47:49.711Z,1.50
2018-09-13T15:49:52.868Z,1.80
2018-09-13T15:51:56.388Z,1.80
2018-09-13T15:53:59.542Z,2.03
2018-09-13T15:56:02.702Z,1.70
2018-09-13T15:58:06.178Z,1.80
2018-09-13T16:00:09.784Z,2.70
2018-09-13T16:02:13.040Z,1.63
2018-09-13T16:04:16.217Z,2.60
2018-09-13T16:06:19.416Z,2.10
2018-09-13T16:08:22.596Z,2.00
2018-09-13T16:10:25.877Z,1.60
2018-09-13T16:12:29.505Z,2.00
2018-09-13T16:14:32.939Z,1.50
2018-09-13T16:16:36.444Z,4.90
2018-09-13T16:18:39.984Z,2.30
2018-09-13T16:20:43.742Z,2.03
2018-09-13T16:22:47.067Z,5.37
2018-09-13T16:24:50.449Z,1.80
2018-09-13T16:26:53.779Z,2.57
2018-09-13T16:28:56.984Z,4.53
2018-09-13T16:31:02.014Z,2.03
2018-09-13T16:33:05.897Z,2.50
2018-09-13T16:35:09.457Z,1.97
2018-09-13T16:37:12.938Z,2.60
2018-09-13T16:39:24.513Z,1.93
2018-09-13T16:41:33.220Z,1.63
2018-09-13T16:43:41.993Z,1.40
2018-09-13T16:45:45.184Z,2.70
2018-09-13T16:47:53.933Z,1.43
2018-09-13T16:49:58.668Z,1.47
2018-09-13T16:52:02.130Z,1.83
2018-09-13T16:54:05.967Z,2.00
2018-09-13T16:56:09.256Z,1.80
2018-09-13T16:58:12.830Z,1.80
2018-09-13T17:00:15.996Z,1.83
2018-09-13T17:02:19.329Z,1.50
2018-09-13T17:04:22.508Z,2.00
2018-09-13T17:06:25.674Z,1.70
2018-09-13T17:08:28.839Z,1.40
2018-09-13T17:10:32.560Z,1.60
2018-09-13T17:12:35.732Z,1.60
2018-09-13T17:14:38.896Z,1.97
2018-09-13T17:16:42.325Z,1.67
2018-09-13T17:18:45.590Z,1.67
2018-09-13T17:20:49.060Z,1.57
2018-09-13T17:22:52.556Z,1.67
2018-09-13T17:24:55.993Z,1.70
2018-09-13T17:26:59.323Z,1.40
2018-09-13T17:29:03.236Z,2.50
2018-09-13T17:31:06.595Z,1.50
2018-09-13T17:33:10.221Z,1.73
2018-09-13T17:35:13.768Z,1.60
2018-09-13T17:37:16.944Z,1.70
2018-09-13T17:39:20.216Z,2.20
2018-09-13T17:41:24.375Z,1.67
2018-09-13T17:43:27.597Z,2.23
2018-09-13T17:45:30.794Z,1.97
2018-09-13T17:47:34.245Z,1.80
2018-09-13T17:49:37.468Z,1.70
2018-09-13T17:51:40.979Z,1.47
2018-09-13T17:53:44.208Z,2.00
2018-09-13T17:55:47.454Z,1.90
2018-09-13T17:57:50.816Z,1.80
2018-09-13T17:59:54.004Z,1.90
2018-09-13T18:01:57.192Z,1.87
2018-09-13T18:04:00.420Z,1.40
2018-09-13T18:06:04.252Z,1.97
2018-09-13T18:08:07.460Z,1.90
2018-09-13T18:10:11.339Z,1.73
2018-09-13T18:12:15.037Z,2.00
2018-09-13T18:14:18.497Z,2.33
2018-09-13T18:16:21.660Z,1.67
2018-09-13T18:18:25.236Z,2.50
2018-09-13T18:20:28.420Z,1.60
2018-09-13T18:22:31.611Z,2.03
2018-09-13T18:24:34.826Z,2.23
2018-09-13T18:26:38.237Z,1.93
2018-09-13T18:28:41.420Z,2.00
2018-09-13T18:30:45.596Z,2.83
2018-09-13T18:32:48.929Z,1.90
2018-09-13T18:34:52.114Z,2.13
2018-09-13T18:36:55.860Z,2.13
2018-09-13T18:38:59.253Z,1.67
2018-09-13T18:41:02.517Z,3.00
2018-09-13T18:43:06.384Z,1.90
2018-09-13T18:45:09.937Z,2.07
2018-09-13T18:47:13.309Z,1.73
2018-09-13T18:49:16.568Z,2.10
2018-09-13T18:51:19.802Z,2.47
2018-09-13T18:53:23.117Z,1.93
2018-09-13T18:55:26.294Z,2.27
2018-09-13T18:57:29.988Z,2.27
2018-09-13T18:59:33.221Z,2.23
2018-09-13T19:01:36.580Z,1.70
2018-09-13T19:03:40.084Z,2.00
2018-09-13T19:05:43.248Z,2.10
2018-09-13T19:07:46.764Z,2.30
2018-09-13T19:09:50.656Z,2.30
2018-09-13T19:11:53.857Z,1.87
2018-09-13T19:13:57.212Z,2.50
2018-09-13T19:16:00.408Z,2.00
2018-09-13T19:18:04.454Z,1.57
2018-09-13T19:20:07.629Z,1.80
2018-09-13T19:22:10.817Z,1.70
2018-09-13T19:24:14.219Z,2.03
2018-09-13T19:26:17.566Z,2.27
2018-09-13T19:28:20.737Z,2.10
2018-09-13T19:30:24.285Z,2.00
2018-09-13T19:32:27.840Z,2.00
2018-09-13T19:34:30.995Z,1.40
2018-09-13T19:36:34.209Z,2.50
2018-09-13T19:38:37.388Z,1.97
2018-09-13T19:40:40.781Z,2.23
2018-09-13T19:42:44.312Z,1.97
2018-09-13T19:44:47.495Z,1.80
2018-09-13T19:46:50.767Z,1.60
2018-09-13T19:48:54.511Z,2.80
2018-09-13T19:50:57.722Z,1.93
2018-09-13T19:53:01.060Z,1.93
2018-09-13T19:55:05.001Z,2.20
2018-09-13T19:57:08.166Z,2.33
2018-09-13T19:59:11.536Z,2.10
2018-09-13T20:01:14.740Z,2.00
2018-09-13T20:03:17.949Z,2.30
2018-09-13T20:05:21.127Z,2.17
2018-09-13T20:07:24.616Z,2.07
2018-09-13T20:09:27.783Z,2.53
2018-09-13T20:11:31.014Z,2.30
2018-09-13T20:13:34.898Z,2.50
2018-09-13T20:15:38.060Z,2.40
2018-09-13T20:17:41.237Z,3.23
2018-09-13T20:19:44.760Z,3.23
2018-09-13T20:21:48.296Z,2.17
2018-09-13T20:23:51.472Z,2.20
2018-09-13T20:25:54.640Z,2.77
2018-09-13T20:27:57.830Z,2.90
2018-09-13T20:30:01.036Z,2.90
2018-09-13T20:32:04.257Z,2.83
2018-09-13T20:34:07.428Z,2.50
2018-09-13T20:36:10.985Z,2.63
2018-09-13T20:38:14.145Z,2.63
2018-09-13T20:40:17.320Z,2.67
2018-09-13T20:42:20.552Z,2.70
2018-09-13T20:44:23.754Z,2.50
2018-09-13T20:46:26.936Z,2.20
2018-09-13T20:48:30.186Z,4.63
2018-09-13T20:50:33.566Z,2.70
2018-09-13T20:52:36.773Z,2.40
2018-09-13T20:54:40.239Z,2.67
2018-09-13T20:56:43.595Z,2.90
2018-09-13T20:58:47.297Z,3.07
2018-09-13T21:00:50.931Z,2.80
2018-09-13T21:02:54.260Z,3.20
2018-09-13T21:04:57.544Z,3.97
2018-09-13T21:07:00.977Z,3.10
2018-09-13T21:09:05.876Z,2.93
2018-09-13T21:11:09.214Z,3.60
2018-09-13T21:13:12.660Z,3.53
2018-09-13T21:15:16.133Z,2.93
2018-09-13T21:17:19.649Z,3.50
2018-09-13T21:19:22.915Z,3.10
2018-09-13T21:21:26.140Z,2.73
2018-09-13T21:23:29.393Z,3.00
2018-09-13T21:25:32.785Z,3.17
2018-09-13T21:27:35.942Z,2.60
2018-09-13T21:29:39.539Z,2.87
2018-09-13T21:31:43.002Z,2.87
2018-09-13T21:33:46.161Z,2.90
2018-09-13T21:35:49.356Z,3.53
2018-09-13T21:37:52.527Z,4.00
2018-09-13T21:39:55.697Z,3.37
2018-09-13T21:41:59.060Z,3.40
2018-09-13T21:44:02.248Z,3.30
2018-09-13T21:46:05.608Z,3.10
2018-09-13T21:48:09.101Z,4.70
2018-09-13T21:50:12.308Z,3.73
2018-09-13T21:52:15.484Z,2.97
2018-09-13T21:54:18.689Z,3.40
2018-09-13T21:56:21.968Z,3.37
2018-09-13T21:58:25.156Z,3.43
2018-09-13T22:00:28.358Z,4.30
2018-09-13T22:02:31.547Z,5.33
2018-09-13T22:04:34.713Z,4.17
2018-09-13T22:06:37.916Z,4.97
2018-09-13T22:08:41.108Z,4.40
2018-09-13T22:10:44.283Z,4.60
2018-09-13T22:12:47.880Z,5.30
2018-09-13T22:14:51.064Z,3.53
2018-09-13T22:16:54.245Z,4.40
2018-09-13T22:18:57.644Z,3.40
2018-09-13T22:21:00.836Z,3.07
2018-09-13T22:23:04.343Z,3.40
2018-09-13T22:25:07.877Z,3.40
2018-09-13T22:27:11.056Z,3.23
2018-09-13T22:29:14.337Z,2.73
2018-09-13T22:31:18.032Z,3.30
2018-09-13T22:33:21.811Z,2.93
2018-09-13T22:35:25.007Z,3.20
2018-09-13T22:37:28.370Z,3.80
2018-09-13T22:39:31.581Z,3.00
2018-09-13T22:41:34.760Z,3.87
2018-09-13T22:43:53.378Z,3.70
2018-09-13T22:45:56.598Z,3.30
2018-09-13T22:48:00.140Z,4.20
2018-09-13T22:50:03.684Z,3.93
2018-09-13T22:52:07.501Z,3.73
2018-09-13T22:54:10.688Z,3.37
2018-09-13T22:56:14.504Z,3.53
2018-09-13T22:58:17.685Z,4.20
2018-09-13T23:00:20.876Z,4.30
2018-09-13T23:02:24.435Z,3.40
2018-09-13T23:04:27.705Z,4.10
2018-09-13T23:06:30.892Z,4.80
2018-09-13T23:08:34.098Z,4.20
2018-09-13T23:10:37.255Z,3.53
2018-09-13T23:12:40.421Z,3.70
2018-09-13T23:14:43.613Z,4.33
2018-09-13T23:16:49.579Z,4.20
2018-09-13T23:18:50.367Z,3.87
2018-09-13T23:20:53.596Z,4.20
2018-09-13T23:22:56.760Z,5.13
2018-09-13T23:24:59.960Z,4.13
2018-09-13T23:27:03.180Z,4.00
2018-09-13T23:29:06.675Z,5.27
2018-09-13T23:31:10.102Z,4.50
2018-09-13T23:33:13.785Z,4.37
2018-09-13T23:35:17.012Z,5.80
2018-09-13T23:37:20.215Z,4.13
2018-09-13T23:39:23.602Z,6.40
2018-09-13T23:41:26.802Z,5.17
2018-09-13T23:43:29.969Z,5.63
2018-09-13T23:45:33.171Z,4.77
2018-09-13T23:47:36.569Z,4.83
2018-09-13T23:49:39.764Z,4.47
2018-09-13T23:51:43.300Z,4.80
2018-09-13T23:53:46.480Z,3.90
2018-09-13T23:55:49.838Z,4.10
2018-09-13T23:57:53.372Z,4.67
2018-09-13T23:59:56.604Z,4.70
